sensor_id;sensor_type;location;lat;lon;timestamp;P1;durP1;ratioP1;P2;durP2;ratioP2
78489;SDS011;67776;52.012;4.736;2023-04-19T00:00:36;14.75;;;7.88;;
78489;SDS011;67776;52.012;4.736;2023-04-19T00:03:02;14.60;;;8.07;;
78489;SDS011;67776;52.012;4.736;2023-04-19T00:05:29;15.30;;;7.72;;
78489;SDS011;67776;52.012;4.736;2023-04-19T00:07:55;14.50;;;7.70;;
78489;SDS011;67776;52.012;4.736;2023-04-19T00:10:20;13.10;;;7.80;;
78489;SDS011;67776;52.012;4.736;2023-04-19T00:12:49;14.30;;;7.67;;
78489;SDS011;67776;52.012;4.736;2023-04-19T00:15:14;13.32;;;7.28;;
78489;SDS011;67776;52.012;4.736;2023-04-19T00:17:39;15.90;;;8.13;;
78489;SDS011;67776;52.012;4.736;2023-04-19T00:20:06;13.83;;;7.77;;
78489;SDS011;67776;52.012;4.736;2023-04-19T00:22:32;13.63;;;7.65;;
78489;SDS011;67776;52.012;4.736;2023-04-19T00:24:58;17.63;;;8.38;;
78489;SDS011;67776;52.012;4.736;2023-04-19T00:27:23;13.93;;;7.83;;
78489;SDS011;67776;52.012;4.736;2023-04-19T00:29:48;13.77;;;7.93;;
78489;SDS011;67776;52.012;4.736;2023-04-19T00:32:14;15.77;;;8.30;;
78489;SDS011;67776;52.012;4.736;2023-04-19T00:34:40;14.52;;;8.07;;
78489;SDS011;67776;52.012;4.736;2023-04-19T00:37:06;15.23;;;7.93;;
78489;SDS011;67776;52.012;4.736;2023-04-19T00:39:32;14.25;;;8.48;;
78489;SDS011;67776;52.012;4.736;2023-04-19T00:41:57;16.03;;;8.07;;
78489;SDS011;67776;52.012;4.736;2023-04-19T00:44:23;15.23;;;8.50;;
78489;SDS011;67776;52.012;4.736;2023-04-19T00:46:48;15.43;;;8.02;;
78489;SDS011;67776;52.012;4.736;2023-04-19T00:49:15;15.93;;;8.77;;
78489;SDS011;67776;52.012;4.736;2023-04-19T00:51:42;16.13;;;8.52;;
78489;SDS011;67776;52.012;4.736;2023-04-19T00:54:07;17.03;;;9.07;;
78489;SDS011;67776;52.012;4.736;2023-04-19T00:56:33;15.68;;;8.70;;
78489;SDS011;67776;52.012;4.736;2023-04-19T00:59:00;16.30;;;8.98;;
78489;SDS011;67776;52.012;4.736;2023-04-19T01:01:25;16.83;;;9.03;;
78489;SDS011;67776;52.012;4.736;2023-04-19T01:03:50;15.17;;;8.77;;
78489;SDS011;67776;52.012;4.736;2023-04-19T01:06:16;16.63;;;9.25;;
78489;SDS011;67776;52.012;4.736;2023-04-19T01:08:41;14.93;;;9.10;;
78489;SDS011;67776;52.012;4.736;2023-04-19T01:11:07;15.27;;;9.07;;
78489;SDS011;67776;52.012;4.736;2023-04-19T01:13:32;17.53;;;9.23;;
78489;SDS011;67776;52.012;4.736;2023-04-19T01:15:58;17.23;;;9.10;;
78489;SDS011;67776;52.012;4.736;2023-04-19T01:18:24;16.50;;;8.85;;
78489;SDS011;67776;52.012;4.736;2023-04-19T01:20:50;15.87;;;9.03;;
78489;SDS011;67776;52.012;4.736;2023-04-19T01:23:17;16.73;;;8.52;;
78489;SDS011;67776;52.012;4.736;2023-04-19T01:25:42;17.48;;;9.32;;
78489;SDS011;67776;52.012;4.736;2023-04-19T01:28:08;15.43;;;8.70;;
78489;SDS011;67776;52.012;4.736;2023-04-19T01:30:34;17.50;;;9.07;;
78489;SDS011;67776;52.012;4.736;2023-04-19T01:32:59;18.47;;;8.80;;
78489;SDS011;67776;52.012;4.736;2023-04-19T01:35:25;14.30;;;8.53;;
78489;SDS011;67776;52.012;4.736;2023-04-19T01:37:50;15.77;;;8.97;;
78489;SDS011;67776;52.012;4.736;2023-04-19T01:40:19;15.70;;;8.50;;
78489;SDS011;67776;52.012;4.736;2023-04-19T01:42:45;15.23;;;8.43;;
78489;SDS011;67776;52.012;4.736;2023-04-19T01:45:12;15.77;;;8.88;;
78489;SDS011;67776;52.012;4.736;2023-04-19T01:47:37;16.87;;;8.90;;
78489;SDS011;67776;52.012;4.736;2023-04-19T01:50:04;16.10;;;9.00;;
78489;SDS011;67776;52.012;4.736;2023-04-19T01:52:30;16.25;;;8.60;;
78489;SDS011;67776;52.012;4.736;2023-04-19T01:54:56;17.30;;;8.43;;
78489;SDS011;67776;52.012;4.736;2023-04-19T01:57:21;15.83;;;8.90;;
78489;SDS011;67776;52.012;4.736;2023-04-19T01:59:46;14.73;;;8.40;;
78489;SDS011;67776;52.012;4.736;2023-04-19T02:02:12;16.33;;;9.38;;
78489;SDS011;67776;52.012;4.736;2023-04-19T02:04:37;17.60;;;8.87;;
78489;SDS011;67776;52.012;4.736;2023-04-19T02:07:02;16.97;;;9.33;;
78489;SDS011;67776;52.012;4.736;2023-04-19T02:09:28;18.80;;;9.30;;
78489;SDS011;67776;52.012;4.736;2023-04-19T02:11:53;16.53;;;8.73;;
78489;SDS011;67776;52.012;4.736;2023-04-19T02:14:18;17.07;;;9.50;;
78489;SDS011;67776;52.012;4.736;2023-04-19T02:16:44;17.60;;;9.10;;
78489;SDS011;67776;52.012;4.736;2023-04-19T02:19:09;17.73;;;8.87;;
78489;SDS011;67776;52.012;4.736;2023-04-19T02:21:34;17.42;;;9.68;;
78489;SDS011;67776;52.012;4.736;2023-04-19T02:24:00;17.37;;;8.80;;
78489;SDS011;67776;52.012;4.736;2023-04-19T02:26:25;16.17;;;8.93;;
78489;SDS011;67776;52.012;4.736;2023-04-19T02:28:51;18.73;;;9.73;;
78489;SDS011;67776;52.012;4.736;2023-04-19T02:31:17;16.55;;;9.65;;
78489;SDS011;67776;52.012;4.736;2023-04-19T02:33:42;17.43;;;9.43;;
78489;SDS011;67776;52.012;4.736;2023-04-19T02:36:08;19.95;;;9.65;;
78489;SDS011;67776;52.012;4.736;2023-04-19T02:38:33;19.23;;;9.97;;
78489;SDS011;67776;52.012;4.736;2023-04-19T02:40:58;21.17;;;10.37;;
78489;SDS011;67776;52.012;4.736;2023-04-19T02:43:25;18.30;;;9.75;;
78489;SDS011;67776;52.012;4.736;2023-04-19T02:45:50;17.63;;;9.60;;
78489;SDS011;67776;52.012;4.736;2023-04-19T02:48:19;17.57;;;9.80;;
78489;SDS011;67776;52.012;4.736;2023-04-19T02:50:44;18.80;;;9.93;;
78489;SDS011;67776;52.012;4.736;2023-04-19T02:53:09;22.33;;;10.30;;
78489;SDS011;67776;52.012;4.736;2023-04-19T02:55:35;18.03;;;9.67;;
78489;SDS011;67776;52.012;4.736;2023-04-19T02:58:00;18.52;;;9.80;;
78489;SDS011;67776;52.012;4.736;2023-04-19T03:00:25;17.83;;;9.77;;
78489;SDS011;67776;52.012;4.736;2023-04-19T03:02:51;18.50;;;10.03;;
78489;SDS011;67776;52.012;4.736;2023-04-19T03:05:16;20.80;;;10.07;;
78489;SDS011;67776;52.012;4.736;2023-04-19T03:07:42;17.67;;;9.93;;
78489;SDS011;67776;52.012;4.736;2023-04-19T03:10:07;17.60;;;9.80;;
78489;SDS011;67776;52.012;4.736;2023-04-19T03:12:33;17.90;;;9.98;;
78489;SDS011;67776;52.012;4.736;2023-04-19T03:14:58;20.43;;;9.93;;
78489;SDS011;67776;52.012;4.736;2023-04-19T03:17:23;18.87;;;10.13;;
78489;SDS011;67776;52.012;4.736;2023-04-19T03:19:49;16.17;;;9.77;;
78489;SDS011;67776;52.012;4.736;2023-04-19T03:22:14;20.25;;;10.50;;
78489;SDS011;67776;52.012;4.736;2023-04-19T03:24:40;18.63;;;10.17;;
78489;SDS011;67776;52.012;4.736;2023-04-19T03:27:05;17.70;;;10.13;;
78489;SDS011;67776;52.012;4.736;2023-04-19T03:29:30;16.90;;;9.57;;
78489;SDS011;67776;52.012;4.736;2023-04-19T03:31:56;17.07;;;9.10;;
78489;SDS011;67776;52.012;4.736;2023-04-19T03:34:21;18.85;;;9.45;;
78489;SDS011;67776;52.012;4.736;2023-04-19T03:36:46;17.73;;;10.00;;
78489;SDS011;67776;52.012;4.736;2023-04-19T03:39:12;16.77;;;9.57;;
78489;SDS011;67776;52.012;4.736;2023-04-19T03:41:38;16.90;;;9.77;;
78489;SDS011;67776;52.012;4.736;2023-04-19T03:44:04;17.85;;;9.73;;
78489;SDS011;67776;52.012;4.736;2023-04-19T03:46:29;16.80;;;9.50;;
78489;SDS011;67776;52.012;4.736;2023-04-19T03:48:55;18.33;;;9.45;;
78489;SDS011;67776;52.012;4.736;2023-04-19T03:51:21;17.77;;;9.47;;
78489;SDS011;67776;52.012;4.736;2023-04-19T03:53:46;17.23;;;9.43;;
78489;SDS011;67776;52.012;4.736;2023-04-19T03:56:12;16.17;;;8.90;;
78489;SDS011;67776;52.012;4.736;2023-04-19T03:58:37;17.10;;;9.33;;
78489;SDS011;67776;52.012;4.736;2023-04-19T04:01:03;15.13;;;8.77;;
78489;SDS011;67776;52.012;4.736;2023-04-19T04:03:28;17.37;;;9.40;;
78489;SDS011;67776;52.012;4.736;2023-04-19T04:05:53;15.73;;;9.10;;
78489;SDS011;67776;52.012;4.736;2023-04-19T04:08:19;15.43;;;8.40;;
78489;SDS011;67776;52.012;4.736;2023-04-19T04:10:44;16.03;;;8.47;;
78489;SDS011;67776;52.012;4.736;2023-04-19T04:13:09;15.53;;;8.67;;
78489;SDS011;67776;52.012;4.736;2023-04-19T04:15:35;18.37;;;9.07;;
78489;SDS011;67776;52.012;4.736;2023-04-19T04:18:00;14.97;;;8.20;;
78489;SDS011;67776;52.012;4.736;2023-04-19T04:20:26;18.37;;;9.10;;
78489;SDS011;67776;52.012;4.736;2023-04-19T04:22:51;15.30;;;8.47;;
78489;SDS011;67776;52.012;4.736;2023-04-19T04:25:16;16.07;;;8.67;;
78489;SDS011;67776;52.012;4.736;2023-04-19T04:27:42;14.52;;;8.00;;
78489;SDS011;67776;52.012;4.736;2023-04-19T04:30:08;15.50;;;8.53;;
78489;SDS011;67776;52.012;4.736;2023-04-19T04:32:35;17.60;;;8.50;;
78489;SDS011;67776;52.012;4.736;2023-04-19T04:35:01;17.00;;;8.40;;
78489;SDS011;67776;52.012;4.736;2023-04-19T04:37:27;15.77;;;8.23;;
78489;SDS011;67776;52.012;4.736;2023-04-19T04:39:53;14.50;;;8.45;;
78489;SDS011;67776;52.012;4.736;2023-04-19T04:42:19;14.13;;;8.13;;
78489;SDS011;67776;52.012;4.736;2023-04-19T04:44:45;13.38;;;7.72;;
78489;SDS011;67776;52.012;4.736;2023-04-19T04:47:12;18.52;;;8.23;;
78489;SDS011;67776;52.012;4.736;2023-04-19T04:49:37;17.27;;;8.65;;
78489;SDS011;67776;52.012;4.736;2023-04-19T04:52:03;14.83;;;8.20;;
78489;SDS011;67776;52.012;4.736;2023-04-19T04:54:28;14.10;;;7.70;;
78489;SDS011;67776;52.012;4.736;2023-04-19T04:56:54;14.40;;;8.00;;
78489;SDS011;67776;52.012;4.736;2023-04-19T04:59:19;15.67;;;7.80;;
78489;SDS011;67776;52.012;4.736;2023-04-19T05:01:44;14.27;;;8.00;;
78489;SDS011;67776;52.012;4.736;2023-04-19T05:04:10;17.67;;;8.43;;
78489;SDS011;67776;52.012;4.736;2023-04-19T05:06:35;14.87;;;7.83;;
78489;SDS011;67776;52.012;4.736;2023-04-19T05:09:01;13.85;;;7.38;;
78489;SDS011;67776;52.012;4.736;2023-04-19T05:11:26;15.43;;;7.53;;
78489;SDS011;67776;52.012;4.736;2023-04-19T05:13:51;14.93;;;7.87;;
78489;SDS011;67776;52.012;4.736;2023-04-19T05:16:17;14.50;;;7.60;;
78489;SDS011;67776;52.012;4.736;2023-04-19T05:18:42;16.87;;;7.77;;
78489;SDS011;67776;52.012;4.736;2023-04-19T05:21:07;16.03;;;7.93;;
78489;SDS011;67776;52.012;4.736;2023-04-19T05:23:34;13.23;;;7.43;;
78489;SDS011;67776;52.012;4.736;2023-04-19T05:26:00;12.95;;;7.28;;
78489;SDS011;67776;52.012;4.736;2023-04-19T05:28:26;13.43;;;7.70;;
78489;SDS011;67776;52.012;4.736;2023-04-19T05:30:51;14.90;;;7.30;;
78489;SDS011;67776;52.012;4.736;2023-04-19T05:33:16;15.53;;;7.70;;
78489;SDS011;67776;52.012;4.736;2023-04-19T05:35:42;13.02;;;7.25;;
78489;SDS011;67776;52.012;4.736;2023-04-19T05:38:07;14.03;;;7.60;;
78489;SDS011;67776;52.012;4.736;2023-04-19T05:40:32;14.73;;;7.43;;
78489;SDS011;67776;52.012;4.736;2023-04-19T05:42:59;13.82;;;7.63;;
78489;SDS011;67776;52.012;4.736;2023-04-19T05:45:25;14.57;;;7.93;;
78489;SDS011;67776;52.012;4.736;2023-04-19T05:47:50;14.73;;;8.13;;
78489;SDS011;67776;52.012;4.736;2023-04-19T05:50:17;15.50;;;7.97;;
78489;SDS011;67776;52.012;4.736;2023-04-19T05:52:44;14.03;;;7.23;;
78489;SDS011;67776;52.012;4.736;2023-04-19T05:55:10;12.90;;;6.97;;
78489;SDS011;67776;52.012;4.736;2023-04-19T05:57:35;13.17;;;7.20;;
78489;SDS011;67776;52.012;4.736;2023-04-19T06:00:01;13.77;;;7.47;;
78489;SDS011;67776;52.012;4.736;2023-04-19T06:02:26;12.73;;;6.75;;
78489;SDS011;67776;52.012;4.736;2023-04-19T06:04:55;13.88;;;7.15;;
78489;SDS011;67776;52.012;4.736;2023-04-19T06:07:22;13.23;;;6.80;;
78489;SDS011;67776;52.012;4.736;2023-04-19T06:09:48;13.85;;;7.45;;
78489;SDS011;67776;52.012;4.736;2023-04-19T06:12:14;15.88;;;7.57;;
78489;SDS011;67776;52.012;4.736;2023-04-19T06:14:39;13.90;;;7.47;;
78489;SDS011;67776;52.012;4.736;2023-04-19T06:17:04;15.63;;;8.07;;
78489;SDS011;67776;52.012;4.736;2023-04-19T06:19:30;14.37;;;7.13;;
78489;SDS011;67776;52.012;4.736;2023-04-19T06:21:57;15.35;;;7.47;;
78489;SDS011;67776;52.012;4.736;2023-04-19T06:24:23;14.50;;;8.03;;
78489;SDS011;67776;52.012;4.736;2023-04-19T06:26:49;13.35;;;7.40;;
78489;SDS011;67776;52.012;4.736;2023-04-19T06:29:15;15.03;;;7.67;;
78489;SDS011;67776;52.012;4.736;2023-04-19T06:31:40;14.48;;;8.00;;
78489;SDS011;67776;52.012;4.736;2023-04-19T06:34:06;14.17;;;7.70;;
78489;SDS011;67776;52.012;4.736;2023-04-19T06:36:32;14.77;;;7.80;;
78489;SDS011;67776;52.012;4.736;2023-04-19T06:38:57;13.97;;;7.37;;
78489;SDS011;67776;52.012;4.736;2023-04-19T06:41:22;13.60;;;7.77;;
78489;SDS011;67776;52.012;4.736;2023-04-19T06:43:48;13.70;;;7.47;;
78489;SDS011;67776;52.012;4.736;2023-04-19T06:46:13;19.17;;;8.53;;
78489;SDS011;67776;52.012;4.736;2023-04-19T06:48:39;13.90;;;7.63;;
78489;SDS011;67776;52.012;4.736;2023-04-19T06:51:05;12.67;;;7.17;;
78489;SDS011;67776;52.012;4.736;2023-04-19T06:53:30;14.67;;;7.77;;
78489;SDS011;67776;52.012;4.736;2023-04-19T06:55:59;14.17;;;7.43;;
78489;SDS011;67776;52.012;4.736;2023-04-19T06:58:26;15.03;;;7.83;;
78489;SDS011;67776;52.012;4.736;2023-04-19T07:00:52;15.45;;;7.72;;
78489;SDS011;67776;52.012;4.736;2023-04-19T07:03:18;13.10;;;7.32;;
78489;SDS011;67776;52.012;4.736;2023-04-19T07:05:43;13.63;;;7.00;;
78489;SDS011;67776;52.012;4.736;2023-04-19T07:08:09;14.67;;;6.87;;
78489;SDS011;67776;52.012;4.736;2023-04-19T07:10:34;14.33;;;7.63;;
78489;SDS011;67776;52.012;4.736;2023-04-19T07:13:00;12.97;;;7.37;;
78489;SDS011;67776;52.012;4.736;2023-04-19T07:15:25;12.57;;;7.07;;
78489;SDS011;67776;52.012;4.736;2023-04-19T07:17:51;13.07;;;7.17;;
78489;SDS011;67776;52.012;4.736;2023-04-19T07:20:16;14.45;;;7.28;;
78489;SDS011;67776;52.012;4.736;2023-04-19T07:22:41;12.53;;;7.03;;
78489;SDS011;67776;52.012;4.736;2023-04-19T07:25:07;12.97;;;6.73;;
78489;SDS011;67776;52.012;4.736;2023-04-19T07:27:33;14.52;;;7.50;;
78489;SDS011;67776;52.012;4.736;2023-04-19T07:29:58;12.80;;;7.10;;
78489;SDS011;67776;52.012;4.736;2023-04-19T07:32:23;13.23;;;7.07;;
78489;SDS011;67776;52.012;4.736;2023-04-19T07:34:49;11.77;;;6.50;;
78489;SDS011;67776;52.012;4.736;2023-04-19T07:37:15;11.55;;;6.32;;
78489;SDS011;67776;52.012;4.736;2023-04-19T07:39:41;12.15;;;6.55;;
78489;SDS011;67776;52.012;4.736;2023-04-19T07:42:07;11.70;;;6.47;;
78489;SDS011;67776;52.012;4.736;2023-04-19T07:44:32;12.60;;;6.50;;
78489;SDS011;67776;52.012;4.736;2023-04-19T07:46:57;11.07;;;6.20;;
78489;SDS011;67776;52.012;4.736;2023-04-19T07:49:23;12.73;;;6.47;;
78489;SDS011;67776;52.012;4.736;2023-04-19T07:51:48;12.03;;;6.63;;
78489;SDS011;67776;52.012;4.736;2023-04-19T07:54:14;13.50;;;5.97;;
78489;SDS011;67776;52.012;4.736;2023-04-19T07:56:44;11.52;;;5.68;;
78489;SDS011;67776;52.012;4.736;2023-04-19T07:59:09;11.23;;;5.70;;
78489;SDS011;67776;52.012;4.736;2023-04-19T08:01:35;10.70;;;5.43;;
78489;SDS011;67776;52.012;4.736;2023-04-19T08:04:00;11.02;;;5.78;;
78489;SDS011;67776;52.012;4.736;2023-04-19T08:06:26;12.57;;;6.20;;
78489;SDS011;67776;52.012;4.736;2023-04-19T08:08:51;11.37;;;5.40;;
78489;SDS011;67776;52.012;4.736;2023-04-19T08:11:17;11.93;;;5.40;;
78489;SDS011;67776;52.012;4.736;2023-04-19T08:13:42;10.77;;;5.93;;
78489;SDS011;67776;52.012;4.736;2023-04-19T08:16:08;15.50;;;5.70;;
78489;SDS011;67776;52.012;4.736;2023-04-19T08:18:34;10.90;;;5.72;;
78489;SDS011;67776;52.012;4.736;2023-04-19T08:20:59;11.03;;;5.40;;
78489;SDS011;67776;52.012;4.736;2023-04-19T08:23:25;10.60;;;5.65;;
78489;SDS011;67776;52.012;4.736;2023-04-19T08:25:50;13.03;;;5.40;;
78489;SDS011;67776;52.012;4.736;2023-04-19T08:28:18;8.43;;;4.33;;
78489;SDS011;67776;52.012;4.736;2023-04-19T08:30:44;7.90;;;3.90;;
78489;SDS011;67776;52.012;4.736;2023-04-19T08:33:10;8.23;;;4.17;;
78489;SDS011;67776;52.012;4.736;2023-04-19T08:35:38;9.73;;;3.45;;
78489;SDS011;67776;52.012;4.736;2023-04-19T08:38:07;8.48;;;3.88;;
78489;SDS011;67776;52.012;4.736;2023-04-19T08:40:32;9.90;;;4.23;;
78489;SDS011;67776;52.012;4.736;2023-04-19T08:42:58;9.00;;;3.80;;
78489;SDS011;67776;52.012;4.736;2023-04-19T08:45:26;7.43;;;3.70;;
78489;SDS011;67776;52.012;4.736;2023-04-19T08:47:52;8.07;;;3.65;;
78489;SDS011;67776;52.012;4.736;2023-04-19T08:50:19;8.63;;;3.30;;
78489;SDS011;67776;52.012;4.736;2023-04-19T08:52:45;8.80;;;3.67;;
78489;SDS011;67776;52.012;4.736;2023-04-19T08:55:14;7.40;;;3.70;;
78489;SDS011;67776;52.012;4.736;2023-04-19T08:57:40;8.40;;;3.65;;
78489;SDS011;67776;52.012;4.736;2023-04-19T09:00:06;7.47;;;3.60;;
78489;SDS011;67776;52.012;4.736;2023-04-19T09:02:46;8.18;;;3.25;;
78489;SDS011;67776;52.012;4.736;2023-04-19T09:05:13;9.75;;;3.70;;
78489;SDS011;67776;52.012;4.736;2023-04-19T09:07:39;7.60;;;3.55;;
78489;SDS011;67776;52.012;4.736;2023-04-19T09:10:06;8.03;;;3.60;;
78489;SDS011;67776;52.012;4.736;2023-04-19T09:12:34;6.60;;;3.15;;
78489;SDS011;67776;52.012;4.736;2023-04-19T09:15:00;7.78;;;3.53;;
78489;SDS011;67776;52.012;4.736;2023-04-19T09:17:32;6.90;;;3.28;;
78489;SDS011;67776;52.012;4.736;2023-04-19T09:19:57;7.97;;;3.40;;
78489;SDS011;67776;52.012;4.736;2023-04-19T09:22:23;6.53;;;3.37;;
78489;SDS011;67776;52.012;4.736;2023-04-19T09:24:49;9.30;;;3.60;;
78489;SDS011;67776;52.012;4.736;2023-04-19T09:27:27;8.63;;;3.63;;
78489;SDS011;67776;52.012;4.736;2023-04-19T09:29:55;6.90;;;3.25;;
78489;SDS011;67776;52.012;4.736;2023-04-19T09:32:25;7.27;;;3.40;;
78489;SDS011;67776;52.012;4.736;2023-04-19T09:34:51;6.35;;;2.75;;
78489;SDS011;67776;52.012;4.736;2023-04-19T09:37:18;5.97;;;2.80;;
78489;SDS011;67776;52.012;4.736;2023-04-19T09:39:44;10.45;;;3.30;;
78489;SDS011;67776;52.012;4.736;2023-04-19T09:42:09;6.10;;;2.80;;
78489;SDS011;67776;52.012;4.736;2023-04-19T09:44:35;6.47;;;2.90;;
78489;SDS011;67776;52.012;4.736;2023-04-19T09:47:00;6.50;;;2.78;;
78489;SDS011;67776;52.012;4.736;2023-04-19T09:49:26;6.50;;;3.10;;
78489;SDS011;67776;52.012;4.736;2023-04-19T09:51:52;7.57;;;3.43;;
78489;SDS011;67776;52.012;4.736;2023-04-19T09:54:20;8.68;;;4.03;;
78489;SDS011;67776;52.012;4.736;2023-04-19T09:56:47;9.30;;;4.30;;
78489;SDS011;67776;52.012;4.736;2023-04-19T09:59:13;8.43;;;3.90;;
78489;SDS011;67776;52.012;4.736;2023-04-19T10:01:46;6.72;;;3.20;;
78489;SDS011;67776;52.012;4.736;2023-04-19T10:04:18;8.38;;;2.83;;
78489;SDS011;67776;52.012;4.736;2023-04-19T10:06:51;6.80;;;2.70;;
78489;SDS011;67776;52.012;4.736;2023-04-19T10:09:18;5.63;;;2.70;;
78489;SDS011;67776;52.012;4.736;2023-04-19T10:11:50;6.20;;;3.03;;
78489;SDS011;67776;52.012;4.736;2023-04-19T10:14:21;6.75;;;3.00;;
78489;SDS011;67776;52.012;4.736;2023-04-19T10:16:57;8.20;;;2.85;;
78489;SDS011;67776;52.012;4.736;2023-04-19T10:19:24;5.83;;;2.40;;
78489;SDS011;67776;52.012;4.736;2023-04-19T10:21:49;5.20;;;2.17;;
78489;SDS011;67776;52.012;4.736;2023-04-19T10:24:15;7.32;;;2.30;;
78489;SDS011;67776;52.012;4.736;2023-04-19T10:27:05;6.23;;;2.27;;
78489;SDS011;67776;52.012;4.736;2023-04-19T10:32:22;5.07;;;2.33;;
78489;SDS011;67776;52.012;4.736;2023-04-19T10:34:51;6.13;;;2.42;;
78489;SDS011;67776;52.012;4.736;2023-04-19T10:37:23;5.40;;;2.20;;
78489;SDS011;67776;52.012;4.736;2023-04-19T10:39:50;5.33;;;2.20;;
78489;SDS011;67776;52.012;4.736;2023-04-19T10:42:16;5.28;;;2.20;;
78489;SDS011;67776;52.012;4.736;2023-04-19T10:44:41;4.80;;;2.17;;
78489;SDS011;67776;52.012;4.736;2023-04-19T10:47:45;4.60;;;1.80;;
78489;SDS011;67776;52.012;4.736;2023-04-19T10:50:11;5.07;;;1.97;;
78489;SDS011;67776;52.012;4.736;2023-04-19T10:52:41;10.68;;;2.22;;
78489;SDS011;67776;52.012;4.736;2023-04-19T10:55:06;5.27;;;1.93;;
78489;SDS011;67776;52.012;4.736;2023-04-19T11:00:30;4.75;;;2.00;;
78489;SDS011;67776;52.012;4.736;2023-04-19T11:02:57;5.37;;;2.27;;
78489;SDS011;67776;52.012;4.736;2023-04-19T11:05:23;4.88;;;2.17;;
78489;SDS011;67776;52.012;4.736;2023-04-19T11:07:49;5.00;;;2.13;;
78489;SDS011;67776;52.012;4.736;2023-04-19T11:10:17;5.55;;;2.03;;
78489;SDS011;67776;52.012;4.736;2023-04-19T11:12:53;5.63;;;2.20;;
78489;SDS011;67776;52.012;4.736;2023-04-19T11:15:20;6.18;;;2.30;;
78489;SDS011;67776;52.012;4.736;2023-04-19T11:17:48;8.00;;;2.33;;
78489;SDS011;67776;52.012;4.736;2023-04-19T11:20:15;5.70;;;2.55;;
78489;SDS011;67776;52.012;4.736;2023-04-19T11:22:41;4.67;;;2.23;;
78489;SDS011;67776;52.012;4.736;2023-04-19T11:27:37;7.05;;;2.65;;
78489;SDS011;67776;52.012;4.736;2023-04-19T11:30:12;5.65;;;2.28;;
78489;SDS011;67776;52.012;4.736;2023-04-19T11:32:44;4.78;;;2.30;;
78489;SDS011;67776;52.012;4.736;2023-04-19T11:35:19;6.07;;;2.53;;
78489;SDS011;67776;52.012;4.736;2023-04-19T11:37:49;4.80;;;2.20;;
78489;SDS011;67776;52.012;4.736;2023-04-19T11:40:15;6.55;;;2.55;;
78489;SDS011;67776;52.012;4.736;2023-04-19T11:42:42;5.32;;;2.20;;
78489;SDS011;67776;52.012;4.736;2023-04-19T11:45:08;5.47;;;2.28;;
78489;SDS011;67776;52.012;4.736;2023-04-19T11:47:34;6.63;;;2.20;;
78489;SDS011;67776;52.012;4.736;2023-04-19T11:53:21;5.00;;;2.25;;
78489;SDS011;67776;52.012;4.736;2023-04-19T11:55:49;5.63;;;2.08;;
78489;SDS011;67776;52.012;4.736;2023-04-19T11:58:22;5.20;;;2.07;;
78489;SDS011;67776;52.012;4.736;2023-04-19T12:00:49;4.90;;;2.10;;
78489;SDS011;67776;52.012;4.736;2023-04-19T12:03:15;7.38;;;2.33;;
78489;SDS011;67776;52.012;4.736;2023-04-19T12:05:50;6.00;;;2.20;;
78489;SDS011;67776;52.012;4.736;2023-04-19T12:08:30;5.05;;;2.20;;
78489;SDS011;67776;52.012;4.736;2023-04-19T12:11:02;5.47;;;2.08;;
78489;SDS011;67776;52.012;4.736;2023-04-19T12:13:29;6.07;;;2.10;;
78489;SDS011;67776;52.012;4.736;2023-04-19T12:15:55;5.13;;;2.20;;
78489;SDS011;67776;52.012;4.736;2023-04-19T12:18:21;6.18;;;2.50;;
78489;SDS011;67776;52.012;4.736;2023-04-19T12:20:47;5.95;;;2.60;;
78489;SDS011;67776;52.012;4.736;2023-04-19T12:23:14;5.37;;;2.67;;
78489;SDS011;67776;52.012;4.736;2023-04-19T12:25:42;5.22;;;2.15;;
78489;SDS011;67776;52.012;4.736;2023-04-19T12:28:08;6.15;;;2.50;;
78489;SDS011;67776;52.012;4.736;2023-04-19T12:30:34;6.63;;;2.53;;
78489;SDS011;67776;52.012;4.736;2023-04-19T12:33:00;5.38;;;2.60;;
78489;SDS011;67776;52.012;4.736;2023-04-19T12:35:27;6.28;;;2.78;;
78489;SDS011;67776;52.012;4.736;2023-04-19T12:37:53;5.85;;;2.70;;
78489;SDS011;67776;52.012;4.736;2023-04-19T12:40:20;6.70;;;2.92;;
78489;SDS011;67776;52.012;4.736;2023-04-19T12:42:46;6.50;;;3.00;;
78489;SDS011;67776;52.012;4.736;2023-04-19T12:45:17;5.03;;;2.58;;
78489;SDS011;67776;52.012;4.736;2023-04-19T12:47:43;6.70;;;2.83;;
78489;SDS011;67776;52.012;4.736;2023-04-19T12:50:11;8.20;;;2.90;;
78489;SDS011;67776;52.012;4.736;2023-04-19T12:52:37;7.38;;;2.75;;
78489;SDS011;67776;52.012;4.736;2023-04-19T12:55:03;5.00;;;2.70;;
78489;SDS011;67776;52.012;4.736;2023-04-19T12:57:28;18.17;;;3.20;;
78489;SDS011;67776;52.012;4.736;2023-04-19T12:59:54;5.07;;;2.73;;
78489;SDS011;67776;52.012;4.736;2023-04-19T13:02:19;6.43;;;2.77;;
78489;SDS011;67776;52.012;4.736;2023-04-19T13:04:45;6.63;;;2.90;;
78489;SDS011;67776;52.012;4.736;2023-04-19T13:07:10;7.33;;;3.10;;
78489;SDS011;67776;52.012;4.736;2023-04-19T13:09:36;7.00;;;3.37;;
78489;SDS011;67776;52.012;4.736;2023-04-19T13:12:02;6.57;;;3.17;;
78489;SDS011;67776;52.012;4.736;2023-04-19T13:14:28;7.03;;;3.20;;
78489;SDS011;67776;52.012;4.736;2023-04-19T13:16:54;5.80;;;3.30;;
78489;SDS011;67776;52.012;4.736;2023-04-19T13:19:19;7.10;;;3.17;;
78489;SDS011;67776;52.012;4.736;2023-04-19T13:21:45;6.22;;;3.17;;
78489;SDS011;67776;52.012;4.736;2023-04-19T13:24:10;5.90;;;3.30;;
78489;SDS011;67776;52.012;4.736;2023-04-19T13:26:36;6.00;;;3.10;;
78489;SDS011;67776;52.012;4.736;2023-04-19T13:29:01;6.95;;;3.20;;
78489;SDS011;67776;52.012;4.736;2023-04-19T13:31:27;6.70;;;3.30;;
78489;SDS011;67776;52.012;4.736;2023-04-19T13:33:53;6.85;;;3.50;;
78489;SDS011;67776;52.012;4.736;2023-04-19T13:36:18;8.97;;;3.90;;
78489;SDS011;67776;52.012;4.736;2023-04-19T13:38:44;7.03;;;3.60;;
78489;SDS011;67776;52.012;4.736;2023-04-19T13:41:10;8.03;;;3.33;;
78489;SDS011;67776;52.012;4.736;2023-04-19T13:43:36;7.95;;;3.80;;
78489;SDS011;67776;52.012;4.736;2023-04-19T13:46:01;5.97;;;3.50;;
78489;SDS011;67776;52.012;4.736;2023-04-19T13:48:27;7.73;;;3.83;;
78489;SDS011;67776;52.012;4.736;2023-04-19T13:50:56;7.90;;;4.10;;
78489;SDS011;67776;52.012;4.736;2023-04-19T13:53:22;7.43;;;3.60;;
78489;SDS011;67776;52.012;4.736;2023-04-19T13:55:49;7.45;;;3.58;;
78489;SDS011;67776;52.012;4.736;2023-04-19T13:58:15;6.60;;;3.67;;
78489;SDS011;67776;52.012;4.736;2023-04-19T14:00:40;7.10;;;3.67;;
78489;SDS011;67776;52.012;4.736;2023-04-19T14:03:06;7.20;;;3.83;;
78489;SDS011;67776;52.012;4.736;2023-04-19T14:05:31;7.87;;;3.90;;
78489;SDS011;67776;52.012;4.736;2023-04-19T14:07:56;7.83;;;4.00;;
78489;SDS011;67776;52.012;4.736;2023-04-19T14:10:22;6.95;;;3.67;;
78489;SDS011;67776;52.012;4.736;2023-04-19T14:12:48;6.13;;;3.90;;
78489;SDS011;67776;52.012;4.736;2023-04-19T14:15:16;6.40;;;3.70;;
78489;SDS011;67776;52.012;4.736;2023-04-19T14:17:42;6.80;;;3.78;;
78489;SDS011;67776;52.012;4.736;2023-04-19T14:20:07;6.00;;;3.70;;
78489;SDS011;67776;52.012;4.736;2023-04-19T14:22:33;7.37;;;3.87;;
78489;SDS011;67776;52.012;4.736;2023-04-19T14:24:59;6.60;;;3.95;;
78489;SDS011;67776;52.012;4.736;2023-04-19T14:27:24;6.67;;;3.53;;
78489;SDS011;67776;52.012;4.736;2023-04-19T14:29:50;7.15;;;3.50;;
78489;SDS011;67776;52.012;4.736;2023-04-19T14:32:18;7.60;;;3.40;;
78489;SDS011;67776;52.012;4.736;2023-04-19T14:34:44;5.70;;;3.40;;
78489;SDS011;67776;52.012;4.736;2023-04-19T14:37:09;6.65;;;3.05;;
78489;SDS011;67776;52.012;4.736;2023-04-19T14:39:35;5.73;;;3.20;;
78489;SDS011;67776;52.012;4.736;2023-04-19T14:42:00;5.57;;;3.15;;
78489;SDS011;67776;52.012;4.736;2023-04-19T14:44:26;7.73;;;3.33;;
78489;SDS011;67776;52.012;4.736;2023-04-19T14:46:51;6.57;;;3.03;;